Time;durP1;ratioP1;P1;durP2;ratioP2;P2;SDS_P1;SDS_P2;PMS_P1;PMS_P2;Temp;Humidity;BMP_temperature;BMP_pressure;BME280_temperature;BME280_humidity;BME280_pressure;Samples;Min_cycle;Max_cycle;Signal;HPM_P1;HPM_P2
2022/02/16 00:00:17;;;;;;;10.73;7.33;;;8.80;99.90;;;;;;5029825;28;21299;-67
2022/02/16 00:03:08;;;;;;;10.27;7.63;;;8.80;99.90;;;;;;5028793;28;20689;-67
2022/02/16 00:05:37;;;;;;;11.80;7.47;;;8.80;99.90;;;;;;5028184;28;20189;-68
2022/02/16 00:08:06;;;;;;;11.73;7.47;;;8.80;99.90;;;;;;5019562;28;20690;-67
2022/02/16 00:10:34;;;;;;;11.93;6.93;;;8.80;99.90;;;;;;5026958;28;20738;-67
2022/02/16 00:13:04;;;;;;;8.43;7.10;;;8.70;99.90;;;;;;5027501;28;20205;-67
2022/02/16 00:15:32;;;;;;;9.67;6.57;;;8.80;99.90;;;;;;5027728;28;20264;-67
2022/02/16 00:18:00;;;;;;;10.50;7.10;;;8.70;99.90;;;;;;5025742;28;20290;-67
2022/02/16 00:20:28;;;;;;;10.60;8.07;;;8.70;99.90;;;;;;5021736;28;20733;-66
2022/02/16 00:22:57;;;;;;;16.50;8.47;;;8.70;99.90;;;;;;5023138;28;20248;-66
2022/02/16 00:25:25;;;;;;;11.80;8.37;;;8.80;99.90;;;;;;5023593;28;20220;-67
2022/02/16 00:27:54;;;;;;;12.17;8.30;;;8.70;99.90;;;;;;5024949;28;20608;-67
2022/02/16 00:30:24;;;;;;;9.90;7.90;;;8.80;99.90;;;;;;5025104;28;20206;-67
2022/02/16 00:32:52;;;;;;;11.67;7.57;;;8.80;99.90;;;;;;5041258;28;20248;-67
2022/02/16 00:35:20;;;;;;;11.67;7.57;;;8.80;99.90;;;;;;5025935;28;20221;-67
2022/02/16 00:37:48;;;;;;;12.77;7.70;;;8.70;99.90;;;;;;5027239;28;20613;-67
2022/02/16 00:40:17;;;;;;;9.13;6.77;;;8.70;99.90;;;;;;5027099;28;20234;-67
2022/02/16 00:42:45;;;;;;;13.53;7.77;;;8.80;99.90;;;;;;5028660;28;20670;-67
2022/02/16 00:45:13;;;;;;;8.87;7.17;;;8.80;99.90;;;;;;5028447;28;20225;-67
2022/02/16 00:47:43;;;;;;;6.53;5.83;;;8.80;99.90;;;;;;5028111;28;20736;-67
2022/02/16 00:50:12;;;;;;;7.70;6.13;;;8.80;99.90;;;;;;5021075;28;20293;-67
2022/02/16 00:52:40;;;;;;;6.73;6.03;;;8.70;99.90;;;;;;5027819;28;20615;-67
2022/02/16 00:55:09;;;;;;;8.03;6.03;;;8.80;99.90;;;;;;5028801;28;20186;-67
2022/02/16 00:57:38;;;;;;;7.33;5.93;;;8.70;99.90;;;;;;5031379;28;20341;-67
2022/02/16 01:00:07;;;;;;;7.50;5.27;;;8.70;99.90;;;;;;5020348;28;21467;-68
2022/02/16 01:02:36;;;;;;;8.10;5.80;;;8.70;99.90;;;;;;5024582;28;20194;-67
2022/02/16 01:05:07;;;;;;;7.50;6.13;;;8.70;99.90;;;;;;5022785;28;20202;-67
2022/02/16 01:07:35;;;;;;;7.37;6.30;;;8.70;99.90;;;;;;5022908;28;20287;-67
2022/02/16 01:10:05;;;;;;;11.10;6.27;;;8.70;99.90;;;;;;5038483;28;20309;-67
2022/02/16 01:12:35;;;;;;;7.30;5.87;;;8.70;99.90;;;;;;5020444;28;20337;-67
2022/02/16 01:15:04;;;;;;;6.40;5.47;;;8.70;99.90;;;;;;5023030;28;20202;-67
2022/02/16 01:17:33;;;;;;;9.33;6.20;;;8.70;99.90;;;;;;5020832;28;20197;-67
2022/02/16 01:20:02;;;;;;;6.90;5.47;;;8.70;99.90;;;;;;5028025;28;20284;-68
2022/02/16 01:22:32;;;;;;;7.13;4.70;;;8.70;99.90;;;;;;5029872;28;20184;-68
2022/02/16 01:25:01;;;;;;;7.47;5.27;;;8.70;99.90;;;;;;5029731;28;20284;-67
2022/02/16 01:27:30;;;;;;;6.57;5.37;;;8.70;99.90;;;;;;5031060;28;20194;-67
2022/02/16 01:29:59;;;;;;;5.50;4.60;;;8.70;99.90;;;;;;5027981;28;20221;-67
2022/02/16 01:32:28;;;;;;;4.97;4.57;;;8.70;99.90;;;;;;5016886;28;20252;-67
2022/02/16 01:34:56;;;;;;;5.23;4.70;;;8.70;99.90;;;;;;5018148;28;20206;-66
2022/02/16 01:37:24;;;;;;;5.20;4.37;;;8.80;99.90;;;;;;5035635;28;20217;-68
2022/02/16 01:39:54;;;;;;;4.90;4.43;;;8.80;99.90;;;;;;5030907;28;20224;-67
2022/02/16 01:42:22;;;;;;;4.77;4.30;;;8.70;99.90;;;;;;5016831;28;20710;-67
2022/02/16 01:44:51;;;;;;;4.87;4.53;;;8.70;99.90;;;;;;5029088;28;20729;-68
2022/02/16 01:47:19;;;;;;;5.63;5.03;;;8.70;99.90;;;;;;5028018;28;20182;-67
2022/02/16 01:49:47;;;;;;;5.40;4.90;;;8.80;99.90;;;;;;5027397;28;20254;-68
2022/02/16 01:52:16;;;;;;;6.83;5.17;;;8.80;99.90;;;;;;5032260;28;20577;-68
2022/02/16 01:54:45;;;;;;;6.63;5.40;;;8.80;99.90;;;;;;5025709;28;20263;-68
2022/02/16 01:57:15;;;;;;;5.57;5.07;;;8.80;99.90;;;;;;5019666;28;20614;-68
2022/02/16 01:59:44;;;;;;;7.13;4.70;;;8.80;99.90;;;;;;5018584;28;20232;-67
2022/02/16 02:02:12;;;;;;;5.57;4.73;;;8.80;99.90;;;;;;5027189;28;20552;-68
2022/02/16 02:04:40;;;;;;;5.13;4.60;;;8.80;99.90;;;;;;5019182;28;20229;-67
2022/02/16 02:07:09;;;;;;;5.73;5.13;;;8.90;99.90;;;;;;5012287;28;20258;-67
2022/02/16 02:09:37;;;;;;;7.13;5.77;;;8.90;99.90;;;;;;5024891;28;20268;-68
2022/02/16 02:12:06;;;;;;;6.03;4.67;;;8.90;99.90;;;;;;5035235;28;20761;-67
2022/02/16 02:14:35;;;;;;;6.10;5.20;;;8.90;99.90;;;;;;5017607;28;20230;-67
2022/02/16 02:17:04;;;;;;;5.63;5.07;;;8.90;99.90;;;;;;5021457;28;20692;-67
2022/02/16 02:19:34;;;;;;;5.47;4.80;;;8.90;99.90;;;;;;5026571;28;20244;-68
2022/02/16 02:22:04;;;;;;;5.23;4.80;;;8.90;99.90;;;;;;5036915;28;20241;-67
2022/02/16 02:24:32;;;;;;;5.80;4.97;;;8.90;99.90;;;;;;5021712;28;20281;-67
2022/02/16 02:27:01;;;;;;;5.43;4.53;;;8.90;99.90;;;;;;5030017;28;20229;-67
2022/02/16 02:29:29;;;;;;;5.80;4.80;;;8.90;99.90;;;;;;5026582;28;20193;-67
2022/02/16 02:31:57;;;;;;;5.47;5.07;;;8.90;99.90;;;;;;5022942;28;20280;-67
2022/02/16 02:34:26;;;;;;;7.90;4.80;;;8.90;99.90;;;;;;5018493;28;20275;-68
2022/02/16 02:36:54;;;;;;;5.20;4.80;;;8.90;99.90;;;;;;5034489;28;20201;-67
2022/02/16 02:39:24;;;;;;;5.10;4.57;;;8.90;99.90;;;;;;5025438;28;20664;-67
2022/02/16 02:41:52;;;;;;;10.00;7.17;;;8.90;99.90;;;;;;5028387;28;20225;-67
2022/02/16 02:44:20;;;;;;;7.07;5.43;;;9.00;99.90;;;;;;5023229;28;20232;-68
2022/02/16 02:46:48;;;;;;;5.70;5.17;;;9.00;99.90;;;;;;5020033;28;20288;-67
2022/02/16 02:49:17;;;;;;;5.47;5.07;;;8.90;99.90;;;;;;5018972;28;20281;-68
2022/02/16 02:51:45;;;;;;;5.80;5.27;;;9.00;99.90;;;;;;5029777;28;20821;-68
2022/02/16 02:54:14;;;;;;;5.13;4.73;;;8.90;99.90;;;;;;5019023;28;20667;-67
2022/02/16 02:56:44;;;;;;;5.57;5.03;;;8.90;99.90;;;;;;5032870;28;20211;-68
2022/02/16 02:59:13;;;;;;;4.70;4.33;;;8.90;99.90;;;;;;5015197;28;20224;-67
2022/02/16 03:01:41;;;;;;;5.23;4.77;;;9.00;99.90;;;;;;5023372;28;20225;-68
2022/02/16 03:04:10;;;;;;;4.90;4.50;;;9.00;99.90;;;;;;5023104;28;20189;-67
2022/02/16 03:06:38;;;;;;;4.63;4.33;;;9.00;99.90;;;;;;5024869;28;20263;-67
2022/02/16 03:09:06;;;;;;;4.93;4.10;;;8.90;99.90;;;;;;5021632;28;20256;-68
2022/02/16 03:11:34;;;;;;;4.80;4.40;;;9.00;99.90;;;;;;5025400;28;20197;-68
2022/02/16 03:14:04;;;;;;;4.80;3.90;;;8.90;99.90;;;;;;5030839;28;20252;-68
2022/02/16 03:16:32;;;;;;;5.50;4.87;;;9.00;99.90;;;;;;5026941;28;20660;-68
2022/02/16 03:19:01;;;;;;;4.80;4.40;;;8.90;99.90;;;;;;5023044;28;20228;-67
2022/02/16 03:21:29;;;;;;;6.17;5.10;;;8.90;99.90;;;;;;5021031;28;20281;-68
2022/02/16 03:23:57;;;;;;;5.40;4.77;;;9.00;99.90;;;;;;5030698;28;20220;-67
2022/02/16 03:26:25;;;;;;;4.60;4.30;;;9.00;99.90;;;;;;5028800;28;20296;-67
2022/02/16 03:28:56;;;;;;;4.23;3.93;;;9.00;99.90;;;;;;5029081;28;20193;-67
2022/02/16 03:31:26;;;;;;;3.80;3.60;;;9.00;99.90;;;;;;5025096;28;20209;-67
2022/02/16 03:33:54;;;;;;;3.97;3.67;;;9.00;99.90;;;;;;5032477;28;20212;-68
2022/02/16 03:36:25;;;;;;;4.10;3.80;;;9.00;99.90;;;;;;5040703;28;20400;-67
2022/02/16 03:38:54;;;;;;;3.87;3.67;;;9.00;99.90;;;;;;5030172;28;20268;-67
2022/02/16 03:41:22;;;;;;;4.17;3.97;;;9.00;99.90;;;;;;5035774;28;20205;-68
2022/02/16 03:43:51;;;;;;;4.13;3.63;;;9.00;99.90;;;;;;5029336;28;20285;-68
2022/02/16 03:46:22;;;;;;;4.83;4.20;;;9.00;99.90;;;;;;5031242;28;20233;-68
2022/02/16 03:48:52;;;;;;;4.37;4.17;;;9.00;99.90;;;;;;5024846;28;20969;-68
2022/02/16 03:51:23;;;;;;;4.50;4.10;;;9.10;99.90;;;;;;5030805;28;20301;-68
2022/02/16 03:53:51;;;;;;;4.60;4.30;;;9.10;99.90;;;;;;5028244;28;20244;-68
2022/02/16 03:56:19;;;;;;;4.67;4.30;;;9.10;99.90;;;;;;5027362;28;20555;-67
2022/02/16 03:58:48;;;;;;;5.10;4.60;;;9.10;99.90;;;;;;5025511;28;20245;-67
2022/02/16 04:01:16;;;;;;;4.30;4.10;;;9.10;99.90;;;;;;5034482;28;20383;-68
2022/02/16 04:03:44;;;;;;;5.73;4.80;;;9.10;99.90;;;;;;5030775;28;20233;-68
2022/02/16 04:06:14;;;;;;;4.67;4.37;;;9.10;99.90;;;;;;5027525;28;20705;-67
2022/02/16 04:08:44;;;;;;;5.07;4.60;;;9.10;99.90;;;;;;5031588;28;20667;-67
2022/02/16 04:11:12;;;;;;;4.83;4.53;;;9.10;99.90;;;;;;5027514;28;20188;-68
2022/02/16 04:13:41;;;;;;;4.80;4.50;;;9.10;99.90;;;;;;5036005;28;20374;-68
2022/02/16 04:16:09;;;;;;;4.47;4.17;;;9.20;99.90;;;;;;5035302;28;20194;-68
2022/02/16 04:18:37;;;;;;;4.70;4.40;;;9.20;99.90;;;;;;5019627;28;20269;-68
2022/02/16 04:21:06;;;;;;;4.87;4.47;;;9.20;99.90;;;;;;5024207;28;20268;-68
2022/02/16 04:23:35;;;;;;;4.93;4.63;;;9.20;99.90;;;;;;5034522;28;20201;-68
2022/02/16 04:26:03;;;;;;;4.93;4.57;;;9.20;99.90;;;;;;5025171;28;20699;-67
2022/02/16 04:28:32;;;;;;;4.37;4.17;;;9.30;99.90;;;;;;5026694;28;20217;-67
2022/02/16 04:31:00;;;;;;;4.20;4.00;;;9.30;99.90;;;;;;5025128;28;20684;-67
2022/02/16 04:33:29;;;;;;;4.33;4.13;;;9.20;99.90;;;;;;5040042;28;20715;-68
2022/02/16 04:35:57;;;;;;;4.20;4.00;;;9.30;99.90;;;;;;5022007;28;20204;-67
2022/02/16 04:38:25;;;;;;;4.63;4.33;;;9.30;99.90;;;;;;5034845;28;20198;-67
2022/02/16 04:40:55;;;;;;;4.50;4.20;;;9.30;99.90;;;;;;5018955;28;20307;-68
2022/02/16 04:43:24;;;;;;;4.60;4.40;;;9.30;99.90;;;;;;5028461;28;20744;-67
2022/02/16 04:45:56;;;;;;;4.67;4.37;;;9.30;99.90;;;;;;5023026;28;20197;-67
2022/02/16 04:48:24;;;;;;;4.90;4.50;;;9.30;99.90;;;;;;5024338;28;20543;-67
2022/02/16 04:50:52;;;;;;;4.57;4.27;;;9.30;99.90;;;;;;5028541;28;20201;-68
2022/02/16 04:53:20;;;;;;;4.93;4.40;;;9.30;99.90;;;;;;5029385;28;20201;-67
2022/02/16 04:55:49;;;;;;;4.00;3.70;;;9.30;99.90;;;;;;5026592;28;20221;-67
2022/02/16 04:58:18;;;;;;;4.30;3.90;;;9.30;99.90;;;;;;5025210;28;20280;-67
2022/02/16 05:00:46;;;;;;;3.63;3.43;;;9.40;99.90;;;;;;5025121;28;20690;-67
2022/02/16 05:03:19;;;;;;;4.10;3.63;;;9.40;99.90;;;;;;5024083;28;20204;-67
2022/02/16 05:05:48;;;;;;;3.97;3.30;;;9.40;99.90;;;;;;5025753;28;20544;-67
2022/02/16 05:08:16;;;;;;;3.60;3.30;;;9.40;99.90;;;;;;5036234;28;20229;-68
2022/02/16 05:10:45;;;;;;;3.57;3.47;;;9.40;99.90;;;;;;5020944;28;20217;-68
2022/02/16 05:13:13;;;;;;;3.50;3.27;;;9.40;99.90;;;;;;5021930;28;20193;-67
2022/02/16 05:15:43;;;;;;;3.43;3.33;;;9.40;99.90;;;;;;5020866;28;20204;-67
2022/02/16 05:18:11;;;;;;;3.77;3.47;;;9.50;99.90;;;;;;5031196;28;20197;-68
2022/02/16 05:20:40;;;;;;;3.57;3.37;;;9.40;99.90;;;;;;5028214;28;20256;-67
2022/02/16 05:23:08;;;;;;;3.73;3.43;;;9.40;99.90;;;;;;5018254;28;20247;-67
2022/02/16 05:25:37;;;;;;;3.20;3.10;;;9.50;99.90;;;;;;5024890;28;20198;-68
2022/02/16 05:28:05;;;;;;;3.33;3.23;;;9.50;99.90;;;;;;5023247;28;20287;-67
2022/02/16 05:30:34;;;;;;;3.90;3.43;;;9.50;99.90;;;;;;5041188;28;20229;-67
2022/02/16 05:33:04;;;;;;;3.40;3.30;;;9.50;99.90;;;;;;5027632;28;20228;-67
2022/02/16 05:35:32;;;;;;;6.97;3.80;;;9.60;99.90;;;;;;5024316;28;20214;-68
2022/02/16 05:38:00;;;;;;;3.77;3.47;;;9.60;99.90;;;;;;5025835;28;20219;-68
2022/02/16 05:40:29;;;;;;;3.43;3.33;;;9.60;99.90;;;;;;5029526;28;20233;-68
2022/02/16 05:42:58;;;;;;;3.10;3.00;;;9.60;99.90;;;;;;5030772;28;20275;-67
2022/02/16 05:45:28;;;;;;;3.47;3.33;;;9.70;99.90;;;;;;5016101;28;20241;-68
2022/02/16 05:47:57;;;;;;;5.67;3.30;;;9.60;99.90;;;;;;5023930;28;20560;-67
2022/02/16 05:50:27;;;;;;;3.83;3.20;;;9.70;99.90;;;;;;5030115;28;20203;-68
2022/02/16 05:52:57;;;;;;;3.40;3.20;;;9.60;99.90;;;;;;5028990;28;20671;-67
2022/02/16 05:55:26;;;;;;;3.20;3.10;;;9.70;99.90;;;;;;5027019;28;20690;-67
2022/02/16 05:57:54;;;;;;;3.37;3.00;;;9.70;99.90;;;;;;5027176;28;20201;-67
2022/02/16 06:00:23;;;;;;;3.00;2.90;;;9.70;99.90;;;;;;5039983;28;20272;-68
2022/02/16 06:02:51;;;;;;;3.10;2.90;;;9.70;99.90;;;;;;5025819;28;20286;-67
2022/02/16 06:05:20;;;;;;;4.80;3.10;;;9.80;99.90;;;;;;5025839;28;20610;-67
2022/02/16 06:07:50;;;;;;;3.07;2.87;;;9.80;99.90;;;;;;5022042;28;20229;-67
2022/02/16 06:10:18;;;;;;;2.90;2.80;;;9.80;99.90;;;;;;5025724;28;20185;-67
2022/02/16 06:12:46;;;;;;;3.17;2.97;;;9.80;99.90;;;;;;5024082;28;20197;-67
2022/02/16 06:15:15;;;;;;;2.60;2.50;;;9.80;99.90;;;;;;5013562;28;20958;-67
2022/02/16 06:17:43;;;;;;;3.13;2.60;;;9.90;99.90;;;;;;5022707;28;20770;-68
2022/02/16 06:20:12;;;;;;;2.80;2.70;;;9.90;99.90;;;;;;5018646;28;21010;-67
2022/02/16 06:22:41;;;;;;;2.70;2.60;;;9.90;99.90;;;;;;5029316;28;20623;-67
2022/02/16 06:25:12;;;;;;;2.70;2.60;;;10.00;99.90;;;;;;5027514;28;20610;-67
2022/02/16 06:27:40;;;;;;;2.67;2.53;;;10.00;99.90;;;;;;5022583;28;20623;-67
2022/02/16 06:30:10;;;;;;;2.80;2.70;;;10.00;99.90;;;;;;5018898;28;20660;-67
2022/02/16 06:32:39;;;;;;;2.60;2.50;;;10.00;99.90;;;;;;5022529;28;20793;-67
2022/02/16 06:35:08;;;;;;;2.83;2.73;;;10.00;99.90;;;;;;5019210;28;20609;-67
2022/02/16 06:37:36;;;;;;;2.93;2.83;;;10.00;99.90;;;;;;5019461;28;20602;-67
2022/02/16 06:40:09;;;;;;;2.90;2.70;;;10.10;99.90;;;;;;5033594;28;20280;-67
2022/02/16 06:42:40;;;;;;;3.37;3.17;;;10.10;99.90;;;;;;5019315;28;20202;-67
2022/02/16 06:45:11;;;;;;;3.13;2.80;;;10.10;99.90;;;;;;5020791;28;20285;-67
2022/02/16 06:47:39;;;;;;;4.63;3.50;;;10.10;99.90;;;;;;5018136;28;20722;-67
2022/02/16 06:50:08;;;;;;;3.07;2.97;;;10.20;99.90;;;;;;5018892;28;20675;-67
2022/02/16 06:52:37;;;;;;;3.63;3.33;;;10.20;99.90;;;;;;5027197;28;20605;-67
2022/02/16 06:55:06;;;;;;;3.60;3.30;;;10.20;99.90;;;;;;5006299;28;20634;-67
2022/02/16 06:57:35;;;;;;;3.80;3.50;;;10.20;99.90;;;;;;5017006;28;20198;-67
2022/02/16 07:00:06;;;;;;;3.70;3.50;;;10.30;99.90;;;;;;5020897;28;20204;-69
2022/02/16 07:02:42;;;;;;;4.43;3.60;;;10.30;99.90;;;;;;5021462;28;20719;-68
2022/02/16 07:05:11;;;;;;;4.67;4.27;;;10.30;99.90;;;;;;5020141;28;20680;-68
2022/02/16 07:07:40;;;;;;;4.60;4.20;;;10.30;99.90;;;;;;5025804;28;20710;-67
2022/02/16 07:10:09;;;;;;;4.37;4.17;;;10.40;99.90;;;;;;5030364;28;20655;-68
2022/02/16 07:12:37;;;;;;;4.07;3.77;;;10.40;99.90;;;;;;5025629;28;20259;-67
2022/02/16 07:15:11;;;;;;;3.63;3.20;;;10.40;99.90;;;;;;5018968;28;20252;-67
2022/02/16 07:17:40;;;;;;;2.80;2.60;;;10.50;99.90;;;;;;5015217;28;20723;-67
2022/02/16 07:20:11;;;;;;;2.27;2.17;;;10.50;99.90;;;;;;5018843;28;20271;-67
2022/02/16 07:22:41;;;;;;;1.80;1.80;;;10.50;99.90;;;;;;5022478;28;20209;-67
2022/02/16 07:25:10;;;;;;;2.17;2.07;;;10.60;99.90;;;;;;5017047;28;20277;-67
2022/02/16 07:27:58;;;;;;;2.73;1.93;;;10.60;99.90;;;;;;5011946;28;20609;-66
2022/02/16 07:30:28;;;;;;;1.90;1.90;;;10.60;99.90;;;;;;5018993;28;20220;-67
2022/02/16 07:32:57;;;;;;;2.00;1.90;;;10.60;99.90;;;;;;5012260;28;20206;-66
2022/02/16 07:35:26;;;;;;;2.07;2.07;;;10.60;99.90;;;;;;5030622;28;20301;-66
2022/02/16 07:37:55;;;;;;;1.97;1.90;;;10.60;99.90;;;;;;5031562;28;20671;-67
2022/02/16 07:40:24;;;;;;;2.30;2.30;;;10.70;99.90;;;;;;5019412;28;20696;-67
2022/02/16 07:42:52;;;;;;;2.57;2.47;;;10.70;99.90;;;;;;5019719;28;20248;-67
2022/02/16 07:45:20;;;;;;;2.33;2.13;;;10.70;99.90;;;;;;5022537;28;20664;-67
2022/02/16 07:47:50;;;;;;;2.63;2.60;;;10.70;99.90;;;;;;5019579;28;20203;-67
2022/02/16 07:50:19;;;;;;;2.90;2.70;;;10.70;99.90;;;;;;5029530;28;20200;-67
2022/02/16 07:52:48;;;;;;;2.50;2.40;;;10.70;99.90;;;;;;5023640;28;20232;-67
2022/02/16 07:55:17;;;;;;;2.63;2.53;;;10.70;99.90;;;;;;5016126;28;20209;-67
2022/02/16 07:57:45;;;;;;;2.83;2.67;;;10.80;99.90;;;;;;5021074;28;20216;-68
2022/02/16 08:00:15;;;;;;;3.00;2.83;;;10.70;99.90;;;;;;5016345;28;20197;-66
2022/02/16 08:02:44;;;;;;;3.07;2.97;;;10.70;99.90;;;;;;5021998;28;20797;-67
2022/02/16 08:05:14;;;;;;;3.63;3.43;;;10.80;99.90;;;;;;5023004;28;20667;-67
2022/02/16 08:07:42;;;;;;;4.10;3.80;;;10.80;99.90;;;;;;5015728;28;20734;-67
2022/02/16 08:10:11;;;;;;;3.93;3.73;;;10.80;99.90;;;;;;5009884;28;20201;-67
2022/02/16 08:12:47;;;;;;;4.37;4.07;;;10.80;99.90;;;;;;5029599;28;20229;-67
2022/02/16 08:15:15;;;;;;;4.03;3.70;;;10.80;99.90;;;;;;5022957;28;20209;-67
2022/02/16 08:17:44;;;;;;;4.30;4.10;;;10.80;99.90;;;;;;5024890;28;20206;-68
2022/02/16 08:20:14;;;;;;;4.10;3.90;;;10.90;99.90;;;;;;5020499;28;20209;-67
2022/02/16 08:22:43;;;;;;;6.70;4.10;;;10.90;99.90;;;;;;5028474;28;20264;-67
2022/02/16 08:25:12;;;;;;;4.53;4.13;;;10.90;99.90;;;;;;5023532;28;20217;-67
2022/02/16 08:27:42;;;;;;;5.33;4.93;;;10.90;99.90;;;;;;5015703;28;20202;-67
2022/02/16 08:30:12;;;;;;;8.87;6.20;;;11.00;99.90;;;;;;5022000;28;20202;-67
2022/02/16 08:32:41;;;;;;;4.33;4.10;;;11.00;99.90;;;;;;5023395;28;20205;-67
2022/02/16 08:35:12;;;;;;;4.83;4.37;;;11.00;99.90;;;;;;5017970;28;20676;-68
2022/02/16 08:37:42;;;;;;;6.33;4.23;;;11.00;99.90;;;;;;5023201;28;20233;-67
2022/02/16 08:40:12;;;;;;;6.27;4.47;;;11.10;99.90;;;;;;5028394;28;20193;-67
2022/02/16 08:42:41;;;;;;;6.10;4.00;;;11.10;99.90;;;;;;5028167;28;20917;-67
2022/02/16 08:45:11;;;;;;;3.77;3.47;;;11.10;99.90;;;;;;5022767;28;20196;-67
2022/02/16 08:47:40;;;;;;;7.77;3.50;;;11.10;99.90;;;;;;5025651;28;20202;-67
2022/02/16 08:50:09;;;;;;;3.77;3.47;;;11.20;99.90;;;;;;5024674;28;20197;-67
2022/02/16 08:52:42;;;;;;;7.17;3.20;;;11.20;99.90;;;;;;5020337;28;20259;-67
2022/02/16 08:55:10;;;;;;;9.33;3.77;;;11.30;99.90;;;;;;5027678;28;20205;-67
2022/02/16 08:57:40;;;;;;;8.40;3.30;;;11.30;99.90;;;;;;5034704;28;20231;-68
2022/02/16 09:00:10;;;;;;;5.97;3.50;;;11.30;99.90;;;;;;5021578;28;20268;-68
2022/02/16 09:02:39;;;;;;;6.67;3.47;;;11.40;99.90;;;;;;5016752;28;20198;-67
2022/02/16 09:05:08;;;;;;;10.10;3.30;;;11.40;99.90;;;;;;5024629;28;20201;-67
2022/02/16 09:07:37;;;;;;;9.40;3.70;;;11.40;99.90;;;;;;5023441;28;20229;-67
2022/02/16 09:10:10;;;;;;;4.93;3.43;;;11.40;99.90;;;;;;5029966;28;20205;-67
2022/02/16 09:12:42;;;;;;;5.97;3.80;;;11.50;99.90;;;;;;5022597;28;20295;-67
2022/02/16 09:15:10;;;;;;;10.17;4.20;;;11.50;99.90;;;;;;5027413;28;20193;-67
2022/02/16 09:17:39;;;;;;;10.87;4.20;;;11.50;99.90;;;;;;5026004;28;20225;-67
2022/02/16 09:20:08;;;;;;;4.70;3.37;;;11.60;99.90;;;;;;5022068;28;20193;-68
2022/02/16 09:22:37;;;;;;;7.13;4.47;;;11.60;99.90;;;;;;5011551;28;20248;-67
2022/02/16 09:25:08;;;;;;;28.60;15.73;;;11.60;99.90;;;;;;5031144;28;20276;-67
2022/02/16 09:27:38;;;;;;;9.47;4.10;;;11.60;99.90;;;;;;5027582;28;20284;-68
2022/02/16 09:30:07;;;;;;;14.37;5.50;;;11.60;99.90;;;;;;5023243;28;20220;-67
2022/02/16 09:32:37;;;;;;;12.43;5.93;;;11.60;99.90;;;;;;5027789;28;20672;-67
2022/02/16 09:35:07;;;;;;;11.43;4.67;;;11.60;99.90;;;;;;5032674;28;20197;-67
2022/02/16 09:37:35;;;;;;;23.33;12.93;;;11.60;99.90;;;;;;5026714;28;20300;-67
2022/02/16 09:40:04;;;;;;;10.33;4.37;;;11.60;99.90;;;;;;5027644;28;20229;-67
2022/02/16 09:42:35;;;;;;;13.17;5.50;;;11.60;99.90;;;;;;5021504;28;20213;-67
2022/02/16 09:45:07;;;;;;;15.70;5.83;;;11.60;99.90;;;;;;5026847;28;20229;-67
2022/02/16 09:47:37;;;;;;;20.07;11.50;;;11.70;99.90;;;;;;5018735;28;20206;-67
2022/02/16 09:50:11;;;;;;;13.90;5.23;;;11.70;99.90;;;;;;5033881;28;20189;-67
2022/02/16 09:52:40;;;;;;;13.63;4.60;;;11.70;99.90;;;;;;5028369;28;20201;-67
2022/02/16 09:55:09;;;;;;;14.07;4.60;;;11.70;99.90;;;;;;5030534;28;20284;-67
2022/02/16 09:57:40;;;;;;;15.73;4.13;;;11.70;99.90;;;;;;5020370;28;20259;-67
2022/02/16 10:00:12;;;;;;;16.33;4.97;;;11.80;99.90;;;;;;5036068;28;20204;-67
2022/02/16 10:02:43;;;;;;;18.20;5.43;;;11.80;99.90;;;;;;5031146;28;20287;-67
2022/02/16 10:05:13;;;;;;;15.73;4.50;;;11.80;99.90;;;;;;5040475;28;20228;-67
2022/02/16 10:07:45;;;;;;;20.60;6.47;;;11.80;99.90;;;;;;5025222;28;20229;-67
2022/02/16 10:10:17;;;;;;;23.50;8.30;;;11.80;99.90;;;;;;5016041;28;20202;-67
2022/02/16 10:12:50;;;;;;;30.40;13.40;;;11.90;99.90;;;;;;5014786;28;20197;-67
2022/02/16 10:15:21;;;;;;;16.17;5.37;;;12.00;99.90;;;;;;5023637;28;20275;-67
2022/02/16 10:18:04;;;;;;;13.57;3.90;;;12.10;99.90;;;;;;5027325;28;20240;-67
2022/02/16 10:20:32;;;;;;;15.53;3.73;;;12.20;99.90;;;;;;5022569;28;20194;-67
2022/02/16 10:23:01;;;;;;;16.10;3.60;;;12.20;99.90;;;;;;5025142;28;20205;-67
2022/02/16 10:25:32;;;;;;;9.90;3.63;;;12.30;99.90;;;;;;5021619;28;20198;-67
2022/02/16 10:28:13;;;;;;;16.37;3.60;;;12.30;99.90;;;;;;5020310;28;20276;-67
2022/02/16 10:30:56;;;;;;;9.97;3.03;;;12.30;99.90;;;;;;5024710;28;20233;-67
2022/02/16 10:33:27;;;;;;;14.33;3.50;;;12.30;99.90;;;;;;5023669;28;20212;-67
2022/02/16 10:36:02;;;;;;;16.30;4.20;;;12.40;99.90;;;;;;5019422;28;20620;-68
2022/02/16 10:38:31;;;;;;;9.30;3.33;;;12.30;99.90;;;;;;5028537;28;20254;-67
2022/02/16 10:41:06;;;;;;;11.63;3.80;;;12.30;99.90;;;;;;5033186;28;20701;-67
2022/02/16 10:43:38;;;;;;;11.97;3.60;;;12.30;99.90;;;;;;5015191;28;20185;-67
2022/02/16 10:46:21;;;;;;;16.00;3.90;;;12.20;99.90;;;;;;5028585;28;20860;-67
2022/02/16 10:49:08;;;;;;;11.37;4.23;;;12.20;99.90;;;;;;5027973;28;20206;-67
2022/02/16 10:51:37;;;;;;;12.60;3.60;;;12.20;99.90;;;;;;5026065;28;20189;-67
2022/02/16 10:54:18;;;;;;;14.20;4.00;;;12.20;99.90;;;;;;5028055;28;20615;-66
2022/02/16 10:56:48;;;;;;;16.00;3.80;;;12.20;99.90;;;;;;5022136;28;20247;-67
2022/02/16 10:59:19;;;;;;;16.33;3.70;;;12.20;99.90;;;;;;5028308;28;20824;-67
2022/02/16 11:01:47;;;;;;;21.40;4.40;;;12.20;99.90;;;;;;5021669;28;20205;-67
2022/02/16 11:04:56;;;;;;;20.37;4.20;;;12.20;99.90;;;;;;5022966;28;20930;-67
2022/02/16 11:08:04;;;;;;;19.97;4.57;;;12.20;99.90;;;;;;5029376;28;20220;-67
2022/02/16 11:10:34;;;;;;;20.20;4.80;;;12.20;99.90;;;;;;5027765;28;20189;-67
2022/02/16 11:13:03;;;;;;;16.60;4.17;;;12.30;99.90;;;;;;5031719;28;20264;-70
2022/02/16 11:15:33;;;;;;;28.17;8.80;;;12.30;99.90;;;;;;5021645;28;20232;-67
2022/02/16 11:18:11;;;;;;;34.97;5.90;;;12.40;99.90;;;;;;5023036;28;20631;-67
2022/02/16 11:20:40;;;;;;;21.87;5.50;;;12.40;99.90;;;;;;5017044;28;20194;-66
2022/02/16 11:23:09;;;;;;;28.40;5.90;;;12.50;99.90;;;;;;5028106;28;20216;-67
2022/02/16 11:25:40;;;;;;;24.37;5.70;;;12.50;99.90;;;;;;5026510;28;20185;-66
2022/02/16 11:28:12;;;;;;;34.50;7.27;;;12.60;99.90;;;;;;5025270;28;20207;-67
2022/02/16 11:30:44;;;;;;;37.53;9.70;;;12.80;99.90;;;;;;5024773;28;20205;-67
2022/02/16 11:33:16;;;;;;;30.50;10.87;;;12.90;99.90;;;;;;5029172;28;20190;-67
2022/02/16 11:35:53;;;;;;;31.50;6.47;;;13.10;99.90;;;;;;5013417;28;20204;-67
2022/02/16 11:38:25;;;;;;;24.63;6.63;;;13.30;99.90;;;;;;5032399;28;20214;-67
2022/02/16 11:40:55;;;;;;;39.93;8.10;;;13.50;99.90;;;;;;5031172;28;20185;-67
2022/02/16 11:43:47;;;;;;;33.70;7.20;;;13.50;99.90;;;;;;5037973;28;20625;-67
2022/02/16 11:46:38;;;;;;;39.23;12.03;;;13.40;99.90;;;;;;5024277;28;20277;-67
2022/02/16 11:49:08;;;;;;;27.17;5.23;;;13.30;99.90;;;;;;5025047;28;20182;-68
2022/02/16 11:51:38;;;;;;;52.07;18.83;;;13.30;99.90;;;;;;5023496;28;20194;-67
2022/02/16 11:54:52;;;;;;;44.77;16.30;;;13.20;99.90;;;;;;5027732;28;20197;-67
2022/02/16 11:57:42;;;;;;;30.93;7.67;;;13.20;99.90;;;;;;5023296;28;20287;-68
2022/02/16 12:00:31;;;;;;;38.07;13.50;;;13.20;99.90;;;;;;5020587;28;20690;-67
2022/02/16 12:03:16;;;;;;;27.00;5.23;;;13.20;99.90;;;;;;5025449;28;20599;-67
2022/02/16 12:05:56;;;;;;;41.70;13.17;;;13.30;99.90;;;;;;5024407;28;20866;-67
2022/02/16 12:08:26;;;;;;;28.77;7.17;;;13.40;99.90;;;;;;5026416;28;20335;-67
2022/02/16 12:10:57;;;;;;;41.37;16.13;;;13.50;99.90;;;;;;5025709;28;20743;-67
2022/02/16 12:13:28;;;;;;;18.27;4.23;;;13.50;99.90;;;;;;5039681;28;20192;-66
2022/02/16 12:15:59;;;;;;;23.70;5.10;;;13.40;99.90;;;;;;5024793;28;20269;-67
2022/02/16 12:18:29;;;;;;;16.17;5.20;;;13.40;99.90;;;;;;5028421;28;20213;-67
2022/02/16 12:20:59;;;;;;;19.97;4.40;;;13.40;99.90;;;;;;5023443;28;20220;-67
2022/02/16 12:23:29;;;;;;;20.17;4.43;;;13.50;99.90;;;;;;5026719;28;20216;-68
2022/02/16 12:26:07;;;;;;;21.37;4.40;;;13.60;99.90;;;;;;5025522;28;20660;-67
2022/02/16 12:28:56;;;;;;;21.77;4.63;;;13.50;99.90;;;;;;5039122;28;20194;-67
2022/02/16 12:31:34;;;;;;;22.67;5.43;;;13.50;99.90;;;;;;5025617;28;20218;-67
2022/02/16 12:34:07;;;;;;;19.03;4.17;;;13.50;99.90;;;;;;5027603;28;20198;-67
2022/02/16 12:36:39;;;;;;;26.00;4.70;;;13.40;99.90;;;;;;5024334;28;20198;-67
2022/02/16 12:39:10;;;;;;;25.43;4.70;;;13.40;99.90;;;;;;5025635;28;20224;-67
2022/02/16 12:41:39;;;;;;;24.37;4.77;;;13.30;99.90;;;;;;5033063;28;20213;-67
2022/02/16 12:44:09;;;;;;;21.87;4.70;;;13.30;99.90;;;;;;5025334;28;20193;-67
2022/02/16 12:46:41;;;;;;;25.53;6.10;;;13.40;99.90;;;;;;5022622;28;20198;-67
2022/02/16 12:49:16;;;;;;;29.90;5.40;;;13.50;99.90;;;;;;5025480;28;20201;-67
2022/02/16 12:51:48;;;;;;;30.87;5.00;;;13.60;99.90;;;;;;5026347;28;20190;-68
2022/02/16 12:54:18;;;;;;;30.97;5.53;;;13.70;99.90;;;;;;5026207;28;20208;-68
2022/02/16 12:56:49;;;;;;;29.07;5.77;;;13.70;99.90;;;;;;5021543;28;20195;-67
2022/02/16 12:59:22;;;;;;;27.57;5.00;;;13.70;99.90;;;;;;5020886;28;20304;-68
2022/02/16 13:01:54;;;;;;;37.10;5.60;;;13.70;99.90;;;;;;5024352;28;20225;-67
2022/02/16 13:04:25;;;;;;;25.53;5.60;;;13.80;99.90;;;;;;5020597;28;20197;-68